Time;durP1;ratioP1;P1;durP2;ratioP2;P2;SDS_P1;SDS_P2;PMS_P1;PMS_P2;Temp;Humidity;BMP_temperature;BMP_pressure;BME280_temperature;BME280_humidity;BME280_pressure;Samples;Min_cycle;Max_cycle;Signal;HPM_P1;HPM_P2
2024/01/09 00:00:42;;;;;;;9.55;6.63;;;;;;;0.75;66.40;94903.47;5042389;28;20108;-84
2024/01/09 00:03:07;;;;;;;8.57;6.35;;;;;;;0.74;66.28;94901.88;5026535;28;20041;-82
2024/01/09 00:05:32;;;;;;;9.27;6.25;;;;;;;0.66;66.82;94905.69;5034825;28;20030;-83
2024/01/09 00:07:58;;;;;;;8.27;6.20;;;;;;;0.65;66.46;94900.66;5042493;28;20021;-84
2024/01/09 00:10:23;;;;;;;9.13;6.40;;;;;;;0.67;66.71;94906.47;5036412;28;20087;-83
2024/01/09 00:12:49;;;;;;;8.40;6.32;;;;;;;0.65;66.71;94906.84;5039391;28;20098;-84
2024/01/09 00:15:14;;;;;;;10.00;6.32;;;;;;;0.59;67.04;94912.97;5037239;28;20103;-85
2024/01/09 00:17:41;;;;;;;10.27;6.47;;;;;;;0.60;66.99;94912.59;5027171;28;20033;-84
2024/01/09 00:20:07;;;;;;;8.00;6.07;;;;;;;0.60;66.89;94911.81;5032930;28;20025;-84
2024/01/09 00:22:32;;;;;;;8.27;6.07;;;;;;;0.57;67.21;94918.75;5046836;28;20031;-83
2024/01/09 00:24:58;;;;;;;11.52;6.90;;;;;;;0.59;67.20;94923.81;5045875;28;20033;-83
2024/01/09 00:27:23;;;;;;;7.85;5.35;;;;;;;0.59;67.04;94923.81;5042259;28;20132;-84
2024/01/09 00:29:48;;;;;;;9.60;6.75;;;;;;;0.53;66.78;94926.06;5033585;28;20041;-84
2024/01/09 00:32:14;;;;;;;9.30;6.65;;;;;;;0.56;66.91;94924.53;5037966;28;20104;-83
2024/01/09 00:34:40;;;;;;;9.05;6.80;;;;;;;0.57;66.93;94926.84;5027741;28;20037;-85
2024/01/09 00:37:06;;;;;;;8.27;5.90;;;;;;;0.59;66.93;94934.63;5037935;28;20551;-84
2024/01/09 00:39:31;;;;;;;9.93;6.93;;;;;;;0.57;66.89;94932.28;5045646;28;20081;-84
2024/01/09 00:41:57;;;;;;;9.10;6.25;;;;;;;0.57;66.73;94934.97;5037455;28;20037;-84
2024/01/09 00:44:22;;;;;;;9.43;6.28;;;;;;;0.58;67.03;94944.66;5029956;28;20025;-84
2024/01/09 00:46:47;;;;;;;10.40;6.80;;;;;;;0.56;67.29;94948.88;5026872;28;20060;-83
2024/01/09 00:49:13;;;;;;;10.20;6.47;;;;;;;0.52;67.27;94940.75;5026963;28;20023;-83
2024/01/09 00:51:38;;;;;;;8.60;6.25;;;;;;;0.52;67.57;94956.97;5026875;28;20025;-83
2024/01/09 00:54:04;;;;;;;8.68;6.30;;;;;;;0.44;67.45;94950.69;5046006;28;20046;-83
2024/01/09 00:56:29;;;;;;;9.15;5.78;;;;;;;0.42;67.65;94949.53;5035435;28;20029;-82
2024/01/09 00:58:54;;;;;;;8.35;6.07;;;;;;;0.44;67.81;94945.28;5043856;28;20029;-83
2024/01/09 01:01:20;;;;;;;9.48;6.75;;;;;;;0.43;68.06;94954.56;5041006;28;20203;-82
2024/01/09 01:03:45;;;;;;;9.48;6.30;;;;;;;0.38;68.19;94960.31;5030678;28;20116;-84
2024/01/09 01:06:10;;;;;;;8.10;5.45;;;;;;;0.45;67.81;94960.38;5039320;28;20037;-83
2024/01/09 01:08:37;;;;;;;8.35;5.78;;;;;;;0.40;67.70;94957.22;5025930;28;20109;-85
2024/01/09 01:11:03;;;;;;;9.10;5.55;;;;;;;0.40;67.97;94957.22;5025501;28;20068;-83
2024/01/09 01:13:30;;;;;;;10.20;6.50;;;;;;;0.26;68.33;94947.03;5027664;28;20025;-83
2024/01/09 01:15:55;;;;;;;9.02;6.25;;;;;;;0.34;68.21;94950.59;5036966;28;20555;-84
2024/01/09 01:18:20;;;;;;;8.80;5.57;;;;;;;0.31;68.57;94956.75;5026245;28;20112;-84
2024/01/09 01:20:46;;;;;;;10.50;6.35;;;;;;;0.39;67.74;94961.06;5027054;28;20525;-83
2024/01/09 01:23:11;;;;;;;9.00;6.20;;;;;;;0.38;68.10;94965.72;5027733;28;20037;-84
2024/01/09 01:25:37;;;;;;;7.03;5.85;;;;;;;0.42;67.70;94960.34;5035549;28;20481;-84
2024/01/09 01:28:03;;;;;;;8.75;6.35;;;;;;;0.42;67.83;94963.06;5049998;28;20028;-84
2024/01/09 01:30:28;;;;;;;10.23;6.45;;;;;;;0.33;68.63;94959.84;5054095;28;20039;-85
2024/01/09 01:32:54;;;;;;;10.20;6.55;;;;;;;0.33;68.46;94963.34;5052817;28;20052;-82
2024/01/09 01:35:19;;;;;;;8.70;6.38;;;;;;;0.32;68.27;94961.00;5045517;28;20037;-84
2024/01/09 01:37:45;;;;;;;7.25;5.95;;;;;;;0.38;68.10;94971.13;5051682;28;20048;-84
2024/01/09 01:40:10;;;;;;;8.90;6.43;;;;;;;0.31;68.28;94962.16;5051225;28;20446;-84
2024/01/09 01:42:36;;;;;;;9.23;5.90;;;;;;;0.38;68.02;94968.41;5038110;28;20036;-84
2024/01/09 01:45:01;;;;;;;8.68;5.68;;;;;;;0.32;68.14;94974.53;5041612;28;20021;-84
2024/01/09 01:47:27;;;;;;;7.97;5.88;;;;;;;0.30;68.10;94969.50;5027657;28;20492;-85
2024/01/09 01:49:52;;;;;;;10.30;6.00;;;;;;;0.34;67.74;94975.72;5030630;28;20021;-84
2024/01/09 01:52:19;;;;;;;7.70;5.35;;;;;;;0.29;67.96;94975.25;5024411;28;20358;-83
2024/01/09 01:54:44;;;;;;;8.80;5.85;;;;;;;0.24;67.91;94974.47;5024646;28;20032;-84
2024/01/09 01:57:10;;;;;;;9.52;6.20;;;;;;;0.24;67.72;94969.06;5025431;28;20097;-84
2024/01/09 01:59:40;;;;;;;9.23;6.63;;;;;;;0.23;68.21;94975.63;5034405;28;20412;-84
2024/01/09 02:02:06;;;;;;;10.10;5.88;;;;;;;0.21;67.91;94971.72;5031422;28;20037;-84
2024/01/09 02:04:32;;;;;;;8.32;5.55;;;;;;;0.13;68.37;94978.97;5029371;28;20025;-85
2024/01/09 02:06:57;;;;;;;8.63;5.90;;;;;;;0.13;68.11;94975.50;5024743;28;20029;-84
2024/01/09 02:09:23;;;;;;;11.32;6.55;;;;;;;0.04;68.19;94974.97;5025881;28;20017;-84
2024/01/09 02:11:49;;;;;;;9.73;6.50;;;;;;;-0.05;69.06;94981.47;5027072;28;20159;-84
2024/01/09 02:14:15;;;;;;;7.65;5.60;;;;;;;0.00;68.53;94972.25;5030234;28;20504;-84
2024/01/09 02:16:40;;;;;;;9.75;6.30;;;;;;;0.06;68.65;94976.19;5046516;28;20044;-84
2024/01/09 02:19:05;;;;;;;7.15;5.85;;;;;;;-0.09;68.39;94982.56;5038344;28;20033;-84
2024/01/09 02:21:31;;;;;;;7.93;5.30;;;;;;;-0.09;68.47;94977.94;5039248;28;20468;-84
2024/01/09 02:23:56;;;;;;;10.15;6.65;;;;;;;-0.11;68.74;94980.22;5047736;28;20032;-84
2024/01/09 02:26:29;;;;;;;11.57;6.30;;;;;;;-0.04;68.75;94988.41;5029852;28;20460;-84
2024/01/09 02:28:56;;;;;;;8.23;5.70;;;;;;;-0.09;69.02;94982.56;5029962;28;20124;-83
2024/01/09 02:31:22;;;;;;;9.25;6.18;;;;;;;-0.12;69.17;94989.44;5039217;28;20033;-84
2024/01/09 02:33:47;;;;;;;9.40;6.47;;;;;;;-0.07;68.97;94980.25;5035748;28;20040;-85
2024/01/09 02:36:12;;;;;;;10.35;6.82;;;;;;;-0.13;68.98;94982.50;5040780;28;20108;-84
2024/01/09 02:38:38;;;;;;;9.20;6.28;;;;;;;-0.09;69.01;94985.25;5029605;28;20507;-85
2024/01/09 02:41:04;;;;;;;8.73;6.10;;;;;;;-0.06;68.80;94992.63;5040198;28;20092;-85
2024/01/09 02:43:30;;;;;;;8.50;6.40;;;;;;;-0.12;68.74;94985.97;5029144;28;20037;-85
2024/01/09 02:45:55;;;;;;;10.00;6.53;;;;;;;-0.15;69.00;94990.19;5035234;28;20036;-85
2024/01/09 02:48:21;;;;;;;7.18;5.97;;;;;;;-0.09;68.68;94986.03;5030477;28;20160;-84
2024/01/09 02:50:46;;;;;;;8.85;6.35;;;;;;;-0.14;68.81;94988.28;5046890;28;20125;-85
2024/01/09 02:53:11;;;;;;;9.15;6.25;;;;;;;-0.18;68.20;94980.13;5047810;28;20491;-84
2024/01/09 02:55:37;;;;;;;11.32;6.88;;;;;;;-0.31;68.98;94993.06;5047627;28;20041;-84
2024/01/09 02:58:02;;;;;;;8.70;5.97;;;;;;;-0.33;69.09;94979.16;5036169;28;20048;-84
2024/01/09 03:00:30;;;;;;;8.90;5.47;;;;;;;-0.41;69.16;94980.19;5026777;28;20041;-84
2024/01/09 03:02:55;;;;;;;8.20;5.72;;;;;;;-0.35;69.27;94981.44;5034774;28;20037;-84
2024/01/09 03:05:20;;;;;;;7.57;5.72;;;;;;;-0.33;69.18;94979.16;5026652;28;20029;-84
2024/01/09 03:07:46;;;;;;;8.88;6.18;;;;;;;-0.28;69.37;94989.66;5040249;28;20060;-84
2024/01/09 03:10:11;;;;;;;9.30;6.20;;;;;;;-0.33;69.52;94986.50;5026279;28;20033;-84
2024/01/09 03:12:37;;;;;;;10.02;6.22;;;;;;;-0.32;69.32;94986.13;5029491;28;20029;-84
2024/01/09 03:15:02;;;;;;;11.68;5.97;;;;;;;-0.27;68.92;94996.63;5028937;28;20399;-84
2024/01/09 03:17:28;;;;;;;8.95;5.90;;;;;;;-0.28;68.76;94995.06;5038702;28;20124;-85
2024/01/09 03:19:53;;;;;;;8.73;6.03;;;;;;;-0.33;68.73;95002.69;5048430;28;20033;-83
2024/01/09 03:22:18;;;;;;;9.35;6.38;;;;;;;-0.29;68.93;95003.50;5045373;28;20068;-83
2024/01/09 03:24:44;;;;;;;9.07;5.63;;;;;;;-0.40;68.32;95005.28;5030343;28;20620;-83
2024/01/09 03:27:09;;;;;;;9.25;5.78;;;;;;;-0.44;68.87;94999.06;5042373;28;20100;-84
2024/01/09 03:29:35;;;;;;;12.60;7.35;;;;;;;-0.48;69.58;94998.22;5027710;28;20030;-85
2024/01/09 03:32:00;;;;;;;9.30;6.25;;;;;;;-0.45;68.95;94992.13;5043713;28;20059;-83
2024/01/09 03:34:25;;;;;;;9.60;5.97;;;;;;;-0.46;69.19;95006.75;5039568;28;20104;-84
2024/01/09 03:36:51;;;;;;;9.45;6.65;;;;;;;-0.43;68.95;94998.69;5042729;28;20051;-84
2024/01/09 03:39:16;;;;;;;8.55;6.20;;;;;;;-0.45;68.67;94994.81;5044674;28;20043;-84
2024/01/09 03:41:45;;;;;;;11.23;6.50;;;;;;;-0.55;68.96;95001.63;5039560;28;20112;-84
2024/01/09 03:44:10;;;;;;;10.23;6.53;;;;;;;-0.54;69.18;95008.56;5035942;28;20139;-84
2024/01/09 03:46:36;;;;;;;9.43;6.28;;;;;;;-0.54;69.30;95017.44;5040990;28;20941;-85
2024/01/09 03:49:02;;;;;;;8.70;6.28;;;;;;;-0.47;69.07;95018.69;5027444;28;20033;-85
2024/01/09 03:51:27;;;;;;;10.00;6.60;;;;;;;-0.47;68.77;95022.16;5026378;28;20033;-86
2024/01/09 03:53:53;;;;;;;9.23;5.95;;;;;;;-0.39;68.64;95025.78;5037185;28;20033;-85
2024/01/09 03:56:18;;;;;;;9.40;6.40;;;;;;;-0.45;68.91;95022.59;5046576;28;20052;-85
2024/01/09 03:58:44;;;;;;;9.90;5.68;;;;;;;-0.40;68.58;95033.09;5028292;28;20105;-85
2024/01/09 04:01:10;;;;;;;9.48;6.95;;;;;;;-0.41;68.45;95028.81;5044873;28;20033;-86
2024/01/09 04:03:35;;;;;;;11.25;7.50;;;;;;;-0.41;68.77;95036.91;5047214;28;20036;-84
2024/01/09 04:06:02;;;;;;;9.43;6.30;;;;;;;-0.45;69.00;95044.22;5034510;28;20425;-84
2024/01/09 04:08:27;;;;;;;9.38;6.13;;;;;;;-0.40;68.72;95037.69;5044535;28;20085;-84
2024/01/09 04:10:53;;;;;;;10.88;6.97;;;;;;;-0.39;68.44;95050.84;5046631;28;20045;-85
2024/01/09 04:13:19;;;;;;;8.98;6.47;;;;;;;-0.41;68.86;95055.81;5033972;28;20030;-84
2024/01/09 04:15:44;;;;;;;10.63;6.43;;;;;;;-0.43;68.62;95055.41;5026380;28;20045;-85
2024/01/09 04:18:10;;;;;;;9.05;6.15;;;;;;;-0.41;68.91;95061.22;5040159;28;20029;-83
2024/01/09 04:20:35;;;;;;;11.23;7.25;;;;;;;-0.43;68.92;95062.75;5043753;28;20060;-84
2024/01/09 04:23:00;;;;;;;14.30;7.13;;;;;;;-0.44;68.85;95061.97;5034708;28;20028;-84
2024/01/09 04:25:26;;;;;;;10.68;6.90;;;;;;;-0.31;68.50;95070.66;5036778;28;20044;-84
2024/01/09 04:27:51;;;;;;;9.63;6.53;;;;;;;-0.30;68.18;95067.56;5029201;28;20070;-84
2024/01/09 04:30:17;;;;;;;10.55;7.25;;;;;;;-0.29;67.62;95068.34;5046006;28;20114;-85
2024/01/09 04:32:42;;;;;;;13.00;7.97;;;;;;;-0.28;67.70;95065.31;5047055;28;20032;-85
2024/01/09 04:35:07;;;;;;;16.27;8.73;;;;;;;-0.32;67.62;95069.09;5032983;28;20134;-85
2024/01/09 04:37:33;;;;;;;12.55;8.20;;;;;;;-0.26;67.51;95056.81;5035511;28;20025;-85
2024/01/09 04:39:58;;;;;;;14.52;8.05;;;;;;;-0.21;67.39;95067.31;5026414;28;20579;-84
2024/01/09 04:42:24;;;;;;;13.98;8.70;;;;;;;-0.22;67.22;95073.09;5029035;28;20466;-85
2024/01/09 04:44:50;;;;;;;16.77;9.20;;;;;;;-0.20;67.11;95082.38;5026767;28;20038;-84
2024/01/09 04:47:18;;;;;;;10.63;7.85;;;;;;;-0.18;66.21;95079.31;5037870;28;20412;-84
2024/01/09 04:49:43;;;;;;;13.07;8.43;;;;;;;-0.15;66.24;95086.72;5026899;28;20030;-85
2024/01/09 04:52:08;;;;;;;13.18;8.60;;;;;;;-0.18;66.34;95092.81;5025610;28;20025;-85
2024/01/09 04:54:34;;;;;;;13.32;8.27;;;;;;;-0.16;66.21;95099.44;5030284;28;20029;-85
2024/01/09 04:56:59;;;;;;;13.43;7.85;;;;;;;-0.10;66.17;95097.97;5029276;28;20040;-85
2024/01/09 04:59:25;;;;;;;13.80;9.38;;;;;;;-0.12;66.21;95113.00;5027902;28;20217;-85
2024/01/09 05:01:50;;;;;;;15.55;9.75;;;;;;;-0.14;66.42;95107.94;5025529;28;20034;-85
2024/01/09 05:04:15;;;;;;;14.98;9.68;;;;;;;-0.15;66.29;95105.63;5027088;28;20417;-85
2024/01/09 05:06:41;;;;;;;17.88;10.77;;;;;;;-0.20;66.68;95109.41;5026522;28;20028;-85
2024/01/09 05:09:06;;;;;;;18.30;11.25;;;;;;;-0.22;66.69;95110.94;5032698;28;20029;-85
2024/01/09 05:11:31;;;;;;;16.95;9.85;;;;;;;-0.15;66.22;95102.91;5030546;28;20105;-85
2024/01/09 05:13:57;;;;;;;16.35;10.93;;;;;;;-0.16;66.23;95095.97;5038761;28;20556;-85
2024/01/09 05:16:24;;;;;;;17.27;9.88;;;;;;;-0.21;65.97;95088.94;5037156;28;20121;-85
2024/01/09 05:18:50;;;;;;;13.57;8.30;;;;;;;-0.11;65.55;95085.63;5026100;28;20069;-85
2024/01/09 05:21:15;;;;;;;11.45;8.02;;;;;;;-0.06;65.64;95084.50;5027285;28;20072;-85
2024/01/09 05:23:40;;;;;;;15.00;9.68;;;;;;;-0.09;65.77;95083.31;5026063;28;20041;-85
2024/01/09 05:26:06;;;;;;;14.57;9.43;;;;;;;-0.07;65.74;95091.06;5045151;28;20028;-85
2024/01/09 05:28:32;;;;;;;14.98;9.38;;;;;;;-0.09;66.06;95096.06;5034592;28;20032;-84
2024/01/09 05:30:57;;;;;;;13.98;9.32;;;;;;;-0.14;65.91;95097.16;5037530;28;20407;-82
2024/01/09 05:33:23;;;;;;;13.73;9.38;;;;;;;-0.12;66.31;95096.78;5026572;28;20026;-83
2024/01/09 05:35:48;;;;;;;14.40;10.02;;;;;;;-0.15;66.24;95106.41;5027761;28;20043;-84
2024/01/09 05:38:13;;;;;;;13.73;7.65;;;;;;;-0.11;65.45;95096.44;5035442;28;20025;-85
2024/01/09 05:40:39;;;;;;;9.23;7.65;;;;;;;-0.11;65.15;95101.84;5031870;28;20045;-84
2024/01/09 05:43:04;;;;;;;11.50;6.82;;;;;;;-0.14;65.37;95105.25;5031349;28;20041;-85
2024/01/09 05:45:29;;;;;;;11.75;7.30;;;;;;;-0.09;65.09;95104.16;5025602;28;20116;-86
2024/01/09 05:47:55;;;;;;;9.50;6.22;;;;;;;-0.01;64.45;95113.94;5026717;28;20025;-85
2024/01/09 05:50:20;;;;;;;8.95;5.47;;;;;;;-0.02;64.00;95113.16;5037557;28;20127;-84
2024/01/09 05:52:45;;;;;;;8.80;5.72;;;;;;;-0.03;64.03;95125.09;5025557;28;20045;-85
2024/01/09 05:55:11;;;;;;;7.45;5.20;;;;;;;-0.03;64.00;95133.22;5026228;28;20405;-85
2024/01/09 05:57:36;;;;;;;7.47;5.03;;;;;;;0.05;63.92;95144.91;5032311;28;20028;-85
2024/01/09 06:00:02;;;;;;;8.45;5.13;;;;;;;0.06;63.51;95154.59;5036850;28;20034;-85
2024/01/09 06:02:28;;;;;;;6.88;4.75;;;;;;;0.12;62.50;95150.44;5029177;28;20033;-85
2024/01/09 06:04:54;;;;;;;8.85;4.10;;;;;;;0.17;61.97;95154.72;5040627;28;20029;-81
2024/01/09 06:07:20;;;;;;;5.57;4.00;;;;;;;0.17;61.60;95158.25;5049366;28;20082;-82
2024/01/09 06:09:46;;;;;;;7.05;4.20;;;;;;;0.17;61.51;95171.75;5048848;28;20167;-82
2024/01/09 06:12:11;;;;;;;6.50;3.40;;;;;;;0.17;61.73;95187.97;5049139;28;20112;-82
2024/01/09 06:14:37;;;;;;;5.53;3.50;;;;;;;0.29;60.62;95195.09;5049048;28;20025;-83
2024/01/09 06:17:02;;;;;;;5.30;3.13;;;;;;;0.23;60.75;95202.75;5049335;28;20049;-83
2024/01/09 06:19:27;;;;;;;5.03;3.25;;;;;;;0.21;61.30;95209.66;5048635;28;20491;-82
2024/01/09 06:21:53;;;;;;;4.18;3.10;;;;;;;0.19;61.23;95218.13;5049095;28;20503;-82
2024/01/09 06:24:18;;;;;;;5.88;3.35;;;;;;;0.23;60.78;95240.59;5048590;28;20040;-81
2024/01/09 06:26:43;;;;;;;6.55;3.55;;;;;;;0.25;60.63;95243.72;5049277;28;20246;-81
2024/01/09 06:29:09;;;;;;;6.15;3.53;;;;;;;0.30;60.93;95253.44;5048959;28;20527;-82
2024/01/09 06:31:35;;;;;;;4.82;3.25;;;;;;;0.39;60.78;95261.28;5048071;28;20033;-83
2024/01/09 06:34:00;;;;;;;4.60;3.13;;;;;;;0.34;60.22;95259.66;5049488;28;20104;-81
2024/01/09 06:36:25;;;;;;;5.05;3.13;;;;;;;0.45;59.95;95273.38;5047887;28;20510;-81
2024/01/09 06:38:51;;;;;;;5.88;3.38;;;;;;;0.47;59.62;95277.28;5047944;28;20036;-81
2024/01/09 06:41:16;;;;;;;6.65;3.85;;;;;;;0.42;59.27;95279.50;5048392;28;20506;-80
2024/01/09 06:43:42;;;;;;;5.22;3.88;;;;;;;0.47;59.39;95292.72;5046159;28;20021;-81
2024/01/09 06:46:08;;;;;;;6.25;4.18;;;;;;;0.48;58.99;95294.28;5041784;28;20518;-79
2024/01/09 06:48:34;;;;;;;5.88;4.20;;;;;;;0.50;59.24;95302.81;5048044;28;20127;-81
2024/01/09 06:50:59;;;;;;;6.38;4.25;;;;;;;0.41;59.44;95303.09;5048677;28;20078;-81
2024/01/09 06:53:25;;;;;;;7.38;4.82;;;;;;;0.38;59.83;95311.13;5045691;28;20013;-81
2024/01/09 06:55:50;;;;;;;7.05;5.13;;;;;;;0.39;59.90;95329.69;5042389;28;20033;-81
2024/01/09 06:58:18;;;;;;;5.50;4.90;;;;;;;0.40;60.15;95325.88;5047302;28;20025;-81
2024/01/09 07:00:44;;;;;;;7.18;5.40;;;;;;;0.42;59.68;95320.88;5048658;28;20113;-80
2024/01/09 07:03:10;;;;;;;8.18;5.30;;;;;;;0.46;59.35;95332.53;5048565;28;20468;-80
2024/01/09 07:05:35;;;;;;;9.20;5.55;;;;;;;0.41;59.42;95342.88;5049377;28;20136;-82
2024/01/09 07:08:01;;;;;;;6.65;4.70;;;;;;;0.41;59.85;95340.16;5049063;28;20036;-83
2024/01/09 07:10:26;;;;;;;8.07;5.00;;;;;;;0.46;59.39;95343.34;5048589;28;20117;-80
2024/01/09 07:12:51;;;;;;;7.20;4.93;;;;;;;0.46;59.46;95350.66;5050131;28;20245;-80
2024/01/09 07:15:17;;;;;;;5.40;4.32;;;;;;;0.37;59.15;95340.09;5046939;28;20457;-81
2024/01/09 07:17:44;;;;;;;8.25;5.32;;;;;;;0.30;59.49;95344.63;5048338;28;20018;-83
2024/01/09 07:20:10;;;;;;;7.95;5.20;;;;;;;0.28;60.01;95360.41;5045932;28;20379;-85
2024/01/09 07:22:35;;;;;;;7.25;5.15;;;;;;;0.24;59.97;95355.72;5047144;28;20112;-83
2024/01/09 07:25:01;;;;;;;8.65;5.35;;;;;;;0.20;60.28;95352.19;5047552;28;20098;-82
2024/01/09 07:27:26;;;;;;;7.57;4.97;;;;;;;0.24;59.79;95355.72;5046929;28;20043;-82
2024/01/09 07:29:52;;;;;;;8.38;5.22;;;;;;;0.27;59.94;95365.03;5048070;28;20025;-82
2024/01/09 07:32:17;;;;;;;8.90;5.30;;;;;;;0.25;59.94;95368.09;5046806;28;20467;-82
2024/01/09 07:34:43;;;;;;;10.10;4.47;;;;;;;0.27;59.49;95362.34;5048311;28;20109;-83
2024/01/09 07:37:11;;;;;;;7.68;4.88;;;;;;;0.23;59.35;95370.41;5046922;28;20111;-83
2024/01/09 07:39:37;;;;;;;7.72;4.95;;;;;;;0.23;59.52;95362.28;5047793;28;20122;-82
2024/01/09 07:42:02;;;;;;;6.38;4.07;;;;;;;0.22;59.90;95378.84;5047309;28;20115;-83
2024/01/09 07:44:28;;;;;;;6.65;4.82;;;;;;;0.21;60.11;95375.38;5046972;28;20077;-81
2024/01/09 07:46:53;;;;;;;6.72;4.28;;;;;;;0.25;59.63;95373.50;5047769;28;20415;-82
2024/01/09 07:49:18;;;;;;;8.60;5.75;;;;;;;0.19;59.61;95360.66;5046298;28;20033;-82
2024/01/09 07:51:44;;;;;;;8.30;5.50;;;;;;;0.28;60.16;95382.03;5047850;28;20028;-81
2024/01/09 07:54:10;;;;;;;7.40;5.40;;;;;;;0.29;59.95;95380.88;5046278;28;20094;-81
2024/01/09 07:56:35;;;;;;;7.80;5.28;;;;;;;0.32;60.12;95380.97;5047788;28;20017;-82
2024/01/09 07:59:00;;;;;;;8.07;5.20;;;;;;;0.25;60.09;95381.63;5047222;28;20414;-81
2024/01/09 08:01:27;;;;;;;9.05;4.95;;;;;;;0.34;59.99;95377.88;5046799;28;20036;-83
2024/01/09 08:03:52;;;;;;;8.95;5.50;;;;;;;0.39;59.72;95374.91;5046996;28;20115;-81
2024/01/09 08:06:18;;;;;;;11.00;6.50;;;;;;;0.40;59.88;95389.97;5046661;28;20108;-81
2024/01/09 08:08:43;;;;;;;10.30;6.68;;;;;;;0.36;59.85;95389.94;5047306;28;20507;-81
2024/01/09 08:11:09;;;;;;;14.00;8.30;;;;;;;0.35;59.81;95384.88;5046206;28;20052;-83
2024/01/09 08:13:36;;;;;;;11.77;8.98;;;;;;;0.38;59.88;95397.69;5047522;28;20317;-83
2024/01/09 08:16:01;;;;;;;11.75;7.05;;;;;;;0.41;59.63;95396.97;5044747;28;20132;-83
2024/01/09 08:18:27;;;;;;;11.82;6.35;;;;;;;0.41;59.30;95410.50;5046794;28;20096;-82
2024/01/09 08:20:53;;;;;;;7.43;5.53;;;;;;;0.37;59.37;95410.44;5046631;28;20452;-82
2024/01/09 08:23:19;;;;;;;7.50;4.70;;;;;;;0.42;58.70;95414.75;5046036;28;20044;-83
2024/01/09 08:25:45;;;;;;;8.13;4.63;;;;;;;0.42;58.64;95414.75;5046769;28;20115;-82
2024/01/09 08:28:11;;;;;;;7.57;4.95;;;;;;;0.48;58.32;95416.81;5045794;28;20033;-82
2024/01/09 08:30:36;;;;;;;9.93;5.82;;;;;;;0.45;58.38;95414.03;5047128;28;20027;-83
2024/01/09 08:33:02;;;;;;;8.35;5.70;;;;;;;0.43;58.88;95430.63;5045991;28;20079;-82
2024/01/09 08:35:27;;;;;;;8.93;5.40;;;;;;;0.41;59.16;95430.22;5046523;28;20047;-83
2024/01/09 08:37:52;;;;;;;8.13;5.18;;;;;;;0.42;58.77;95436.41;5046249;28;20029;-83
2024/01/09 08:40:18;;;;;;;6.90;5.70;;;;;;;0.45;58.92;95432.97;5046240;28;20083;-83
2024/01/09 08:42:43;;;;;;;7.90;5.97;;;;;;;0.43;58.95;95437.97;5046324;28;20064;-83
2024/01/09 08:45:09;;;;;;;8.55;5.13;;;;;;;0.52;57.78;95438.53;5045922;28;20064;-83
2024/01/09 08:47:34;;;;;;;6.15;4.93;;;;;;;0.57;56.98;95445.53;5047114;28;20025;-83
2024/01/09 08:50:01;;;;;;;7.28;4.65;;;;;;;0.52;56.69;95433.09;5045754;28;20031;-83
2024/01/09 08:52:26;;;;;;;6.00;4.32;;;;;;;0.49;56.41;95452.75;5046504;28;20033;-83
2024/01/09 08:54:54;;;;;;;7.13;4.13;;;;;;;0.48;56.25;95445.78;5045640;28;20485;-84
2024/01/09 08:57:20;;;;;;;6.68;3.95;;;;;;;0.45;55.88;95435.66;5046025;28;20029;-83
2024/01/09 08:59:45;;;;;;;6.60;4.20;;;;;;;0.47;56.14;95438.81;5046088;28;20033;-82
2024/01/09 09:02:11;;;;;;;8.18;4.95;;;;;;;0.35;56.78;95431.66;5045583;28;20029;-83
2024/01/09 09:04:36;;;;;;;7.43;5.47;;;;;;;0.40;56.85;95438.66;5046154;28;20052;-83
2024/01/09 09:07:02;;;;;;;6.22;4.13;;;;;;;0.44;56.69;95439.50;5045625;28;20021;-82
2024/01/09 09:09:29;;;;;;;6.78;4.10;;;;;;;0.41;56.08;95445.66;5046181;28;20108;-83
2024/01/09 09:11:55;;;;;;;7.40;4.07;;;;;;;0.42;55.83;95445.28;5045377;28;20028;-83
2024/01/09 09:14:20;;;;;;;6.28;4.28;;;;;;;0.42;55.83;95452.63;5046060;28;20025;-83
2024/01/09 09:16:46;;;;;;;4.57;3.42;;;;;;;0.44;55.26;95455.75;5045325;28;20508;-83
2024/01/09 09:19:11;;;;;;;7.97;4.20;;;;;;;0.34;55.72;95454.41;5045463;28;20044;-83
2024/01/09 09:21:36;;;;;;;7.75;4.25;;;;;;;0.36;55.56;95457.56;5045787;28;20017;-83
2024/01/09 09:24:02;;;;;;;6.35;4.75;;;;;;;0.27;56.06;95454.28;5044976;28;20056;-83
2024/01/09 09:26:27;;;;;;;7.63;4.13;;;;;;;0.31;55.41;95451.66;5044643;28;20491;-83
2024/01/09 09:28:53;;;;;;;5.50;3.60;;;;;;;0.34;55.40;95457.09;5045006;28;20465;-83
2024/01/09 09:31:19;;;;;;;5.97;3.20;;;;;;;0.45;54.33;95460.00;5045891;28;20052;-83
2024/01/09 09:33:44;;;;;;;5.95;3.45;;;;;;;0.39;54.64;95464.16;5044949;28;20040;-83
2024/01/09 09:36:12;;;;;;;6.13;3.70;;;;;;;0.42;55.07;95464.22;5045525;28;20054;-83
2024/01/09 09:38:37;;;;;;;5.68;3.47;;;;;;;0.37;54.53;95461.03;5045514;28;20547;-83
2024/01/09 09:41:06;;;;;;;8.80;4.47;;;;;;;0.26;54.87;95472.44;5045130;28;20112;-84
2024/01/09 09:43:33;;;;;;;6.55;4.75;;;;;;;0.28;55.09;95471.28;5045379;28;20491;-83
2024/01/09 09:46:01;;;;;;;8.32;4.55;;;;;;;0.31;55.12;95473.28;5045098;28;20122;-83
2024/01/09 09:48:27;;;;;;;11.63;5.90;;;;;;;0.34;55.28;95461.72;5045782;28;20025;-83
2024/01/09 09:50:54;;;;;;;10.00;5.00;;;;;;;0.42;54.47;95464.22;5043627;28;20094;-83
2024/01/09 09:53:22;;;;;;;8.02;5.43;;;;;;;0.47;54.14;95466.66;5045340;28;21119;-83
2024/01/09 09:55:47;;;;;;;7.35;4.80;;;;;;;0.52;53.33;95463.66;5044078;28;20128;-83
2024/01/09 09:58:13;;;;;;;8.63;4.68;;;;;;;0.49;53.56;95463.56;5044854;28;20113;-83
2024/01/09 10:00:39;;;;;;;10.15;4.88;;;;;;;0.47;53.41;95458.53;5045586;28;20534;-84
2024/01/09 10:03:08;;;;;;;8.27;5.00;;;;;;;0.42;54.14;95458.81;5044453;28;20067;-83
2024/01/09 10:05:38;;;;;;;7.97;4.90;;;;;;;0.46;53.84;95456.16;5045828;28;20037;-83
2024/01/09 10:08:07;;;;;;;10.10;5.88;;;;;;;0.52;53.53;95446.63;5044733;28;20021;-83
2024/01/09 10:10:33;;;;;;;12.15;5.90;;;;;;;0.50;52.94;95451.59;5045346;28;20036;-83
2024/01/09 10:12:59;;;;;;;10.68;6.40;;;;;;;0.47;53.33;95458.53;5045393;28;20017;-82
2024/01/09 10:15:24;;;;;;;11.65;5.70;;;;;;;0.40;53.06;95454.88;5044499;28;20567;-82
2024/01/09 10:17:51;;;;;;;9.05;4.68;;;;;;;0.42;52.75;95468.84;5045472;28;20171;-82
2024/01/09 10:20:17;;;;;;;7.97;4.53;;;;;;;0.24;53.17;95463.91;5045993;28;20123;-82
2024/01/09 10:22:42;;;;;;;8.80;5.53;;;;;;;0.30;53.21;95463.63;5045812;28;20544;-83
2024/01/09 10:25:12;;;;;;;9.63;5.65;;;;;;;0.31;53.50;95457.06;5044406;28;20111;-83
2024/01/09 10:27:39;;;;;;;8.80;5.97;;;;;;;0.35;53.66;95474.91;5045284;28;20395;-83
2024/01/09 10:30:07;;;;;;;9.93;5.95;;;;;;;0.42;53.47;95468.84;5044466;28;20053;-83
2024/01/09 10:32:33;;;;;;;9.70;5.05;;;;;;;0.41;53.38;95478.13;5044761;28;20120;-80
2024/01/09 10:34:59;;;;;;;9.60;5.43;;;;;;;0.42;53.40;95475.03;5045259;28;20029;-83
2024/01/09 10:37:24;;;;;;;9.35;6.18;;;;;;;0.40;53.36;95479.25;5044343;28;20033;-83
2024/01/09 10:39:50;;;;;;;9.52;6.25;;;;;;;0.36;52.94;95483.81;5045390;28;20036;-82
2024/01/09 10:42:16;;;;;;;11.88;7.47;;;;;;;0.30;53.20;95490.66;5042632;28;20116;-83
2024/01/09 10:44:41;;;;;;;15.40;7.63;;;;;;;0.21;53.74;95490.84;5048565;28;20040;-83
2024/01/09 10:47:14;;;;;;;14.90;7.72;;;;;;;0.21;54.04;95486.22;5048203;28;20115;-84
2024/01/09 10:49:41;;;;;;;14.23;7.53;;;;;;;0.23;53.82;95502.91;5048235;28;20052;-82
2024/01/09 10:52:13;;;;;;;11.65;7.00;;;;;;;0.23;53.91;95510.22;5047342;28;20112;-82
2024/01/09 10:54:45;;;;;;;11.02;6.53;;;;;;;0.28;53.86;95507.22;5047970;28;20451;-83
2024/01/09 10:57:14;;;;;;;9.30;5.38;;;;;;;0.25;53.37;95511.44;5048572;28;20522;-83
2024/01/09 10:59:41;;;;;;;9.48;6.85;;;;;;;0.23;53.89;95512.91;5047698;28;20443;-82
2024/01/09 11:02:13;;;;;;;10.68;5.70;;;;;;;0.25;53.26;95529.59;5048671;28;20027;-86
2024/01/09 11:04:39;;;;;;;11.25;6.20;;;;;;;0.22;53.40;95527.56;5048042;28;20028;-82
2024/01/09 11:07:07;;;;;;;8.80;6.25;;;;;;;0.22;52.91;95530.28;5048488;28;20102;-81
2024/01/09 11:09:33;;;;;;;10.57;5.93;;;;;;;0.18;52.55;95524.03;5046641;28;20063;-82
2024/01/09 11:11:59;;;;;;;14.63;7.07;;;;;;;0.04;53.09;95523.72;5046480;28;20100;-83
2024/01/09 11:14:25;;;;;;;10.52;6.50;;;;;;;0.01;53.17;95530.63;5030311;28;20579;-82
2024/01/09 11:16:53;;;;;;;10.02;6.63;;;;;;;-0.02;53.36;95534.81;5046013;28;20049;-81
2024/01/09 11:19:18;;;;;;;10.18;6.00;;;;;;;0.05;53.08;95534.19;5046982;28;20068;-84
2024/01/09 11:21:44;;;;;;;8.93;5.57;;;;;;;-0.05;53.25;95546.34;5047468;28;20404;-83
2024/01/09 11:24:09;;;;;;;11.30;6.22;;;;;;;-0.10;53.75;95548.56;5047375;28;20029;-82
2024/01/09 11:26:38;;;;;;;11.38;6.32;;;;;;;-0.12;53.74;95551.59;5047598;28;20550;-82
2024/01/09 11:29:04;;;;;;;9.90;5.70;;;;;;;-0.07;53.53;95550.53;5047459;28;20058;-82